This is the latest recevied weather packets stored in our database for station/object VE2CSM-13. If no packets are shown the sender has not sent any weather packets the latest 10 day(s).
| Time | Temp. | Humidity | Pressure | Rain* | Wind** | Luminosity | Snow |
|---|---|---|---|---|---|---|---|
| 1777835103 | 10° C | 37% | 1016.9 hPa | 0 mm | - | - | - |
| 1777831502 | 10.56° C | 36% | 1017.3 hPa | 0 mm | - | - | - |
| 1777827903 | 10° C | 40% | 1017.8 hPa | 0 mm | - | - | - |
| 1777824303 | 10.56° C | 42% | 1018.4 hPa | 0 mm | - | - | - |
| 1777820703 | 9.44° C | 41% | 1019.2 hPa | 0 mm | - | - | - |
| 1777817104 | 8.33° C | 48% | 1020 hPa | 0 mm | - | - | - |
| 1777813502 | 6.67° C | 62% | 1020.7 hPa | 0 mm | - | - | - |
| 1777811702 | 5.56° C | 74% | 1020.8 hPa | 0 mm | - | - | - |
| 1777809902 | 5° C | 84% | 1021 hPa | 0 mm | - | - | - |
| 1777808102 | 3.33° C | 93% | 1020.8 hPa | 0 mm | - | - | - |
| 1777806302 | 2.22° C | 96% | 1020.7 hPa | 0 mm | - | - | - |
| 1777804502 | 1.11° C | 96% | 1020.8 hPa | 0 mm | - | - | - |
| 1777802702 | 0° C | 95% | 1020.7 hPa | 0 mm | - | - | - |
| 1777800902 | -0.56° C | 95% | 1020.7 hPa | 0 mm | - | - | - |
| 1777799102 | -0.56° C | 95% | 1020.7 hPa | 0 mm | - | - | - |
| 1777797302 | 0° C | 95% | 1020.8 hPa | 0 mm | - | - | - |
| 1777795503 | 0.56° C | 95% | 1020.7 hPa | 0 mm | - | - | - |
| 1777793582 | 1.11° C | 95% | 1020.8 hPa | 0 mm | - | - | - |
| 1777792622 | 1.11° C | 95% | 1020.6 hPa | 0 mm | - | - | - |
| 1777791662 | 1.11° C | 95% | 1020.8 hPa | 0 mm | - | - | - |
| 1777791182 | 0.56° C | 95% | 1020.9 hPa | 0 mm | - | - | - |
| 1777790705 | 0.56° C | 95% | 1020.8 hPa | 0 mm | - | - | - |
| 1777790222 | 0.56° C | 95% | 1021 hPa | 0 mm | - | - | - |
| 1777789742 | 0.56° C | 95% | 1020.9 hPa | 0 mm | - | - | - |
| 1777789502 | 0.56° C | 95% | 1020.9 hPa | 0 mm | - | - | - |
* Rain latest hour (hover to see other rain measurements)
** Current wind speed in m/s (hover to see current wind gust speed)